createdAt,value
2018-03-26T00:01:54.381Z,44.10
2018-03-26T00:04:22.739Z,47.90
2018-03-26T00:06:50.483Z,41.33
2018-03-26T00:09:18.050Z,44.77
2018-03-26T00:11:47.288Z,46.50
2018-03-26T00:14:15.462Z,41.67
2018-03-26T00:16:43.014Z,38.80
2018-03-26T00:19:11.159Z,49.43
2018-03-26T00:21:38.714Z,44.03
2018-03-26T00:24:06.239Z,40.93
2018-03-26T00:26:33.832Z,41.77
2018-03-26T00:29:01.486Z,52.57
2018-03-26T00:31:29.005Z,43.30
2018-03-26T00:33:57.314Z,44.00
2018-03-26T00:36:25.380Z,42.80
2018-03-26T00:38:52.931Z,47.40
2018-03-26T00:41:20.476Z,47.43
2018-03-26T00:43:48.344Z,43.20
2018-03-26T00:46:17.464Z,44.47
2018-03-26T00:48:44.984Z,46.23
2018-03-26T00:51:12.560Z,43.17
2018-03-26T00:53:43.935Z,44.77
2018-03-26T00:56:11.967Z,53.30
2018-03-26T00:58:40.290Z,45.60
2018-03-26T01:01:07.839Z,43.80
2018-03-26T01:03:35.415Z,44.23
2018-03-26T01:06:03.006Z,45.43
2018-03-26T01:08:31.416Z,43.67
2018-03-26T01:10:59.011Z,44.87
2018-03-26T01:13:27.307Z,50.37
2018-03-26T01:15:55.350Z,43.60
2018-03-26T01:18:22.898Z,48.60
2018-03-26T01:20:50.465Z,48.90
2018-03-26T01:23:18.026Z,47.60
2018-03-26T01:25:46.464Z,40.10
2018-03-26T01:28:15.374Z,44.53
2018-03-26T01:30:42.941Z,50.50
2018-03-26T01:33:11.247Z,46.00
2018-03-26T01:35:38.774Z,45.67
2018-03-26T01:38:07.113Z,46.30
2018-03-26T01:40:35.235Z,46.03
2018-03-26T01:43:02.795Z,52.60
2018-03-26T01:45:30.338Z,45.83
2018-03-26T01:47:57.917Z,40.87
2018-03-26T01:50:27.470Z,46.80
2018-03-26T01:52:55.443Z,44.93
2018-03-26T01:55:22.965Z,47.77
2018-03-26T01:57:50.603Z,47.20
2018-03-26T02:00:18.394Z,45.17
2018-03-26T02:02:45.921Z,48.93
2018-03-26T02:05:13.730Z,41.87
2018-03-26T02:07:41.300Z,47.47
2018-03-26T02:10:08.855Z,43.10
2018-03-26T02:12:36.391Z,45.90
2018-03-26T02:15:04.480Z,44.10
2018-03-26T02:17:32.027Z,44.50
2018-03-26T02:19:59.709Z,44.43
2018-03-26T02:22:31.725Z,44.20
2018-03-26T02:25:00.044Z,44.57
2018-03-26T02:27:28.623Z,44.87
2018-03-26T02:29:56.865Z,44.67
2018-03-26T02:32:25.915Z,46.33
2018-03-26T02:34:53.958Z,44.13
2018-03-26T02:37:21.520Z,42.80
2018-03-26T02:39:49.107Z,45.13
2018-03-26T02:42:16.951Z,48.53
2018-03-26T02:44:45.094Z,43.00
2018-03-26T02:47:13.386Z,39.90
2018-03-26T02:49:40.924Z,43.70
2018-03-26T02:52:09.030Z,45.40
2018-03-26T02:54:36.579Z,44.87
2018-03-26T02:57:04.131Z,43.80
2018-03-26T02:59:31.681Z,44.13
2018-03-26T03:01:59.971Z,43.33
2018-03-26T03:04:27.521Z,41.37
2018-03-26T03:06:55.062Z,45.13
2018-03-26T03:09:23.287Z,46.60
2018-03-26T03:11:51.588Z,45.13
2018-03-26T03:14:19.135Z,48.67
2018-03-26T03:16:46.663Z,42.07
2018-03-26T03:19:14.265Z,45.73
2018-03-26T03:21:41.809Z,46.43
2018-03-26T03:24:09.591Z,41.03
2018-03-26T03:26:37.142Z,47.37
2018-03-26T03:29:05.573Z,45.57
2018-03-26T03:31:33.095Z,46.00
2018-03-26T03:34:01.668Z,44.63
2018-03-26T03:36:30.514Z,44.27
2018-03-26T03:38:59.643Z,47.23
2018-03-26T03:41:27.196Z,43.93
2018-03-26T03:43:55.602Z,46.00
2018-03-26T03:46:23.166Z,49.17
2018-03-26T03:48:50.724Z,45.23
2018-03-26T03:51:18.849Z,47.33
2018-03-26T03:53:47.170Z,43.50
2018-03-26T03:56:15.331Z,42.83
2018-03-26T03:58:42.889Z,45.97
2018-03-26T04:01:10.443Z,47.30
2018-03-26T04:03:37.983Z,48.80
2018-03-26T04:06:06.291Z,46.43
2018-03-26T04:08:33.954Z,49.23
2018-03-26T04:11:01.528Z,50.13
2018-03-26T04:13:29.927Z,59.23
2018-03-26T04:15:57.459Z,53.30
2018-03-26T04:18:25.533Z,52.00
2018-03-26T04:20:53.079Z,56.67
2018-03-26T04:23:20.661Z,56.07
2018-03-26T04:25:49.514Z,45.40
2018-03-26T04:28:17.831Z,51.33
2018-03-26T04:30:45.940Z,51.47
2018-03-26T04:33:15.065Z,60.60
2018-03-26T04:35:42.638Z,58.00
2018-03-26T04:38:10.186Z,60.83
2018-03-26T04:40:38.234Z,56.90
2018-03-26T04:43:05.779Z,57.57
2018-03-26T04:45:33.318Z,55.90
2018-03-26T04:48:00.823Z,52.80
2018-03-26T04:50:30.034Z,54.73
2018-03-26T04:52:57.643Z,61.37
2018-03-26T04:55:26.022Z,46.97
2018-03-26T04:57:53.824Z,54.87
2018-03-26T05:00:21.404Z,62.63
2018-03-26T05:02:48.953Z,49.57
2018-03-26T05:05:16.477Z,53.20
2018-03-26T05:07:45.843Z,53.03
2018-03-26T05:10:13.404Z,52.47
2018-03-26T05:12:40.962Z,55.30
2018-03-26T05:15:09.190Z,59.10
2018-03-26T05:17:36.765Z,58.83
2018-03-26T05:20:04.323Z,58.50
2018-03-26T05:22:31.842Z,49.70
2018-03-26T05:24:59.436Z,53.00
2018-03-26T05:27:26.989Z,56.13
2018-03-26T05:29:55.035Z,60.60
2018-03-26T05:32:22.575Z,52.50
2018-03-26T05:34:50.175Z,54.37
2018-03-26T05:37:17.708Z,60.07
2018-03-26T05:39:45.959Z,55.23
2018-03-26T05:42:14.762Z,66.00
2018-03-26T05:44:42.353Z,60.10
2018-03-26T05:47:09.917Z,58.97
2018-03-26T05:49:38.735Z,58.87
2018-03-26T05:52:06.256Z,57.73
2018-03-26T05:54:35.182Z,64.13
2018-03-26T05:57:03.305Z,51.40
2018-03-26T05:59:31.061Z,59.43
2018-03-26T06:01:58.610Z,63.50
2018-03-26T06:04:26.483Z,55.97
2018-03-26T06:06:55.001Z,57.83
2018-03-26T06:09:22.571Z,65.27
2018-03-26T06:11:50.143Z,71.93
2018-03-26T06:14:17.676Z,62.00
2018-03-26T06:16:52.793Z,61.73
2018-03-26T06:19:20.522Z,61.97
2018-03-26T06:21:48.051Z,62.80
2018-03-26T06:24:16.344Z,77.10
2018-03-26T06:26:44.686Z,73.07
2018-03-26T06:29:12.237Z,69.07
2018-03-26T06:31:39.800Z,68.90
2018-03-26T06:34:08.115Z,63.60
2018-03-26T06:36:53.411Z,69.10
2018-03-26T06:39:21.556Z,66.60
2018-03-26T06:41:49.090Z,67.73
2018-03-26T06:44:17.168Z,69.47
2018-03-26T06:46:45.184Z,77.23
2018-03-26T06:49:12.771Z,75.37
2018-03-26T06:51:40.321Z,85.13
2018-03-26T06:54:09.466Z,61.73
2018-03-26T06:56:38.348Z,63.40
2018-03-26T06:59:06.103Z,67.23
2018-03-26T07:01:34.283Z,65.50
2018-03-26T07:04:01.823Z,65.70
2018-03-26T07:06:29.948Z,62.97
2018-03-26T07:08:57.514Z,67.97
2018-03-26T07:11:25.524Z,63.17
2018-03-26T07:13:53.062Z,61.10
2018-03-26T07:16:20.627Z,72.20
2018-03-26T07:18:48.183Z,64.33
2018-03-26T07:21:15.727Z,58.40
2018-03-26T07:23:43.287Z,65.50
2018-03-26T07:26:10.827Z,66.40
2018-03-26T07:28:39.147Z,56.53
2018-03-26T07:31:07.595Z,61.70
2018-03-26T07:33:36.022Z,61.00
2018-03-26T07:36:04.377Z,61.30
2018-03-26T07:38:32.036Z,64.33
2018-03-26T07:40:59.598Z,65.80
2018-03-26T07:43:27.125Z,62.63
2018-03-26T07:45:55.256Z,57.60
2018-03-26T07:48:22.988Z,59.30
2018-03-26T07:50:50.874Z,60.30
2018-03-26T07:53:18.420Z,58.77
2018-03-26T07:55:45.954Z,59.73
2018-03-26T07:58:14.132Z,60.07
2018-03-26T08:00:42.007Z,53.20
2018-03-26T08:03:09.566Z,53.37
2018-03-26T08:05:37.175Z,54.33
2018-03-26T08:08:05.195Z,59.83
2018-03-26T08:10:33.361Z,52.97
2018-03-26T08:13:01.364Z,57.70
2018-03-26T08:15:28.913Z,60.20
2018-03-26T08:17:56.483Z,51.47
2018-03-26T08:20:24.012Z,73.03
2018-03-26T08:22:51.575Z,49.03
2018-03-26T08:25:19.123Z,58.47
2018-03-26T08:27:46.699Z,56.27
2018-03-26T08:30:14.226Z,60.10
2018-03-26T08:32:42.229Z,66.27
2018-03-26T08:35:09.787Z,58.70
2018-03-26T08:37:37.302Z,61.40
2018-03-26T08:40:05.668Z,53.53
2018-03-26T08:42:33.185Z,55.63
2018-03-26T08:45:00.718Z,54.27
2018-03-26T08:47:29.240Z,57.13
2018-03-26T08:49:56.833Z,54.77
2018-03-26T08:52:25.679Z,59.93
2018-03-26T08:54:53.195Z,54.80
2018-03-26T08:57:20.770Z,57.50
2018-03-26T08:59:49.067Z,88.13
2018-03-26T09:02:16.662Z,79.63
2018-03-26T09:04:44.227Z,73.23
2018-03-26T09:07:12.878Z,65.57
2018-03-26T09:09:40.408Z,69.97
2018-03-26T09:12:07.982Z,75.00
2018-03-26T09:14:37.072Z,62.07
2018-03-26T09:17:05.498Z,62.10
2018-03-26T09:19:33.262Z,65.23
2018-03-26T09:22:00.915Z,62.80
2018-03-26T09:24:28.954Z,72.67
2018-03-26T09:26:57.550Z,66.40
2018-03-26T09:29:26.366Z,58.17
2018-03-26T09:31:54.026Z,54.63
2018-03-26T09:34:21.591Z,64.07
2018-03-26T09:36:49.616Z,51.93
2018-03-26T09:39:17.324Z,58.50
2018-03-26T09:41:45.468Z,54.13
2018-03-26T09:44:16.383Z,52.17
2018-03-26T09:46:44.035Z,57.80
2018-03-26T09:49:11.586Z,60.60
2018-03-26T09:51:39.144Z,57.97
2018-03-26T09:54:06.671Z,53.63
2018-03-26T09:56:34.852Z,55.73
2018-03-26T09:59:02.422Z,52.67
2018-03-26T10:01:31.795Z,53.43
2018-03-26T10:03:59.342Z,58.37
2018-03-26T10:06:28.856Z,62.13
2018-03-26T10:08:56.386Z,52.87
2018-03-26T10:11:24.524Z,57.70
2018-03-26T10:13:52.059Z,61.47
2018-03-26T10:16:19.581Z,54.80
2018-03-26T10:18:47.905Z,55.53
2018-03-26T10:21:16.262Z,55.90
2018-03-26T10:23:43.817Z,54.40
2018-03-26T10:26:12.198Z,58.27
2018-03-26T10:28:39.763Z,48.40
2018-03-26T10:31:07.324Z,62.80
2018-03-26T10:33:35.325Z,62.13
2018-03-26T10:36:02.909Z,61.20
2018-03-26T10:38:31.127Z,60.50
2018-03-26T10:40:58.647Z,65.10
2018-03-26T10:43:26.700Z,54.03
2018-03-26T10:45:54.257Z,66.93
2018-03-26T10:48:21.797Z,61.13
2018-03-26T10:50:49.360Z,60.37
2018-03-26T10:53:17.640Z,59.77
2018-03-26T10:55:45.909Z,64.70
2018-03-26T10:58:13.426Z,59.47
2018-03-26T11:00:42.508Z,57.03
2018-03-26T11:03:10.793Z,53.40
2018-03-26T11:05:38.337Z,54.60
2018-03-26T11:08:06.172Z,53.77
2018-03-26T11:10:33.975Z,59.60
2018-03-26T11:13:03.009Z,45.80
2018-03-26T11:15:31.182Z,40.43
2018-03-26T11:17:58.719Z,44.17
2018-03-26T11:20:27.516Z,46.13
2018-03-26T11:22:55.966Z,50.37
2018-03-26T11:25:23.458Z,50.47
2018-03-26T11:27:51.743Z,47.93
2018-03-26T11:30:20.879Z,51.80
2018-03-26T11:32:48.388Z,49.27
2018-03-26T11:35:15.958Z,49.43
2018-03-26T11:37:43.494Z,52.30
2018-03-26T11:40:11.013Z,47.10
2018-03-26T11:42:38.568Z,54.03
2018-03-26T11:45:06.390Z,46.97
2018-03-26T11:47:34.330Z,51.10
2018-03-26T11:50:02.792Z,52.97
2018-03-26T11:52:30.899Z,59.30
2018-03-26T11:54:58.928Z,55.17
2018-03-26T11:57:26.547Z,52.10
2018-03-26T11:59:54.110Z,51.53
2018-03-26T12:02:21.653Z,55.17
2018-03-26T12:04:49.248Z,65.07
2018-03-26T12:07:17.358Z,55.23
2018-03-26T12:09:45.735Z,52.53
2018-03-26T12:12:13.268Z,52.30
2018-03-26T12:14:40.792Z,56.53
2018-03-26T12:17:09.216Z,54.83
2018-03-26T12:22:39.138Z,59.43
2018-03-26T12:25:17.840Z,54.97
2018-03-26T12:27:57.156Z,58.07
2018-03-26T12:30:26.768Z,68.57
2018-03-26T12:32:56.323Z,56.07
2018-03-26T12:35:35.842Z,60.03
2018-03-26T12:38:03.389Z,52.50
2018-03-26T12:40:42.768Z,53.90
2018-03-26T12:43:11.851Z,52.70
2018-03-26T12:45:51.116Z,52.03
2018-03-26T12:48:19.568Z,45.80
2018-03-26T12:50:59.024Z,52.40
2018-03-26T12:53:26.558Z,50.53
2018-03-26T12:55:54.149Z,52.47
2018-03-26T12:58:33.950Z,47.73
2018-03-26T13:01:14.059Z,60.17
2018-03-26T13:03:41.594Z,53.70
2018-03-26T13:06:10.358Z,47.07
2018-03-26T13:08:37.903Z,53.87
2018-03-26T13:11:07.631Z,48.00
2018-03-26T13:13:35.890Z,50.73
2018-03-26T13:16:04.199Z,49.80
2018-03-26T13:18:33.060Z,50.47
2018-03-26T13:21:01.349Z,52.27
2018-03-26T13:23:28.881Z,46.70
2018-03-26T13:25:56.476Z,48.70
2018-03-26T13:28:24.620Z,49.33
2018-03-26T13:30:52.515Z,47.93
2018-03-26T13:33:20.042Z,47.87
2018-03-26T13:35:47.572Z,51.23
2018-03-26T13:38:15.878Z,55.80
2018-03-26T13:40:43.403Z,54.37
2018-03-26T13:43:11.035Z,50.77
2018-03-26T13:45:38.582Z,50.63
2018-03-26T13:48:06.928Z,54.60
2018-03-26T13:50:34.930Z,48.33
2018-03-26T13:53:03.286Z,49.37
2018-03-26T13:55:31.590Z,48.73
2018-03-26T13:57:59.118Z,49.83
2018-03-26T14:00:26.675Z,51.40
2018-03-26T14:02:54.599Z,51.87
2018-03-26T14:05:22.261Z,46.43
2018-03-26T14:07:49.792Z,51.83
2018-03-26T14:10:30.615Z,47.13
2018-03-26T14:13:10.483Z,46.33
2018-03-26T14:15:49.878Z,49.10
2018-03-26T14:18:17.425Z,52.60
2018-03-26T14:20:45.105Z,46.37
2018-03-26T14:23:12.670Z,51.83
2018-03-26T14:25:41.086Z,46.90
2018-03-26T14:28:08.600Z,48.27
2018-03-26T14:30:36.565Z,46.80
2018-03-26T14:33:04.684Z,49.13
2018-03-26T14:35:47.132Z,51.40
2018-03-26T14:38:16.406Z,48.60
2018-03-26T14:40:44.526Z,46.00
2018-03-26T14:43:12.123Z,50.97
2018-03-26T14:45:39.623Z,49.47
2018-03-26T14:48:07.205Z,50.07
2018-03-26T14:50:35.328Z,46.80
2018-03-26T14:53:02.877Z,48.90
2018-03-26T14:55:30.465Z,43.60
2018-03-26T14:57:58.061Z,46.27
2018-03-26T15:00:26.512Z,50.40
2018-03-26T15:02:55.448Z,44.03
2018-03-26T15:05:22.981Z,47.50
2018-03-26T15:07:50.550Z,43.43
2018-03-26T15:10:18.077Z,53.40
2018-03-26T15:12:46.537Z,51.67
2018-03-26T15:15:14.958Z,50.73
2018-03-26T15:17:42.488Z,47.77
2018-03-26T15:20:11.780Z,51.10
2018-03-26T15:22:39.420Z,50.93
2018-03-26T15:25:06.947Z,53.03
2018-03-26T15:27:35.133Z,51.53
2018-03-26T15:30:02.667Z,49.97
2018-03-26T15:32:30.777Z,50.47
2018-03-26T15:34:58.297Z,50.27
2018-03-26T15:37:26.467Z,48.87
2018-03-26T15:39:54.024Z,50.07
2018-03-26T15:42:21.591Z,56.37
2018-03-26T15:44:49.135Z,48.97
2018-03-26T15:47:17.512Z,45.77
2018-03-26T15:49:45.837Z,48.97
2018-03-26T15:52:13.380Z,48.93
2018-03-26T15:54:40.919Z,58.10
2018-03-26T15:57:09.741Z,52.03
2018-03-26T15:59:37.269Z,49.90
2018-03-26T16:02:04.338Z,47.20
2018-03-26T16:04:31.887Z,50.93
2018-03-26T16:06:59.432Z,51.60
2018-03-26T16:09:26.986Z,47.50
2018-03-26T16:11:55.479Z,49.03
2018-03-26T16:14:23.010Z,47.90
2018-03-26T16:16:50.824Z,52.47
2018-03-26T16:19:18.355Z,50.27
2018-03-26T16:21:46.689Z,52.30
2018-03-26T16:24:15.927Z,50.07
2018-03-26T16:26:43.491Z,49.90
2018-03-26T16:29:11.767Z,52.10
2018-03-26T16:31:39.895Z,46.13
2018-03-26T16:34:07.441Z,48.93
2018-03-26T16:36:35.206Z,50.47
2018-03-26T16:39:02.779Z,51.57
2018-03-26T16:41:42.143Z,47.80
2018-03-26T16:44:09.707Z,54.47
2018-03-26T16:46:38.738Z,55.03
2018-03-26T16:49:06.281Z,46.80
2018-03-26T16:51:33.839Z,51.70
2018-03-26T16:54:02.255Z,47.80
2018-03-26T16:56:30.961Z,55.17
2018-03-26T16:58:58.499Z,51.33
2018-03-26T17:01:26.065Z,50.00
2018-03-26T17:03:53.762Z,50.13
2018-03-26T17:06:21.331Z,53.07
2018-03-26T17:08:49.626Z,51.80
2018-03-26T17:11:17.943Z,54.37
2018-03-26T17:13:46.193Z,50.27
2018-03-26T17:16:14.983Z,52.13
2018-03-26T17:18:42.939Z,53.10
2018-03-26T17:21:10.495Z,56.27
2018-03-26T17:23:38.033Z,51.20
2018-03-26T17:26:06.514Z,52.53
2018-03-26T17:28:34.037Z,51.73
2018-03-26T17:31:01.562Z,49.90
2018-03-26T17:33:29.119Z,52.57
2018-03-26T17:35:56.634Z,53.53
2018-03-26T17:38:24.214Z,48.63
2018-03-26T17:40:51.741Z,51.90
2018-03-26T17:43:19.272Z,51.33
2018-03-26T17:45:47.774Z,42.87
2018-03-26T17:48:15.318Z,52.83
2018-03-26T17:50:43.011Z,56.60
2018-03-26T17:53:10.770Z,56.47
2018-03-26T17:55:38.301Z,51.60
2018-03-26T17:58:05.815Z,51.43
2018-03-26T18:00:33.383Z,52.37
2018-03-26T18:03:00.944Z,54.63
2018-03-26T18:05:30.474Z,53.27
2018-03-26T18:07:58.058Z,50.27
2018-03-26T18:10:26.791Z,52.13
2018-03-26T18:12:54.469Z,50.53
2018-03-26T18:15:22.033Z,49.90
2018-03-26T18:17:50.320Z,55.93
2018-03-26T18:20:17.826Z,53.73
2018-03-26T18:22:45.358Z,51.17
2018-03-26T18:25:13.239Z,49.80
2018-03-26T18:27:40.803Z,55.57
2018-03-26T18:30:08.555Z,48.30
2018-03-26T18:32:36.613Z,56.23
2018-03-26T18:35:04.152Z,49.73
2018-03-26T18:37:32.518Z,52.57
2018-03-26T18:40:00.003Z,54.20
2018-03-26T18:42:28.932Z,54.40
2018-03-26T18:44:56.499Z,49.37
2018-03-26T18:47:24.060Z,47.50
2018-03-26T18:49:51.604Z,51.73
2018-03-26T18:52:19.384Z,48.63
2018-03-26T18:54:47.515Z,45.47
2018-03-26T18:57:16.460Z,48.77
2018-03-26T18:59:44.548Z,49.97
2018-03-26T19:02:12.181Z,55.10
2018-03-26T19:04:39.924Z,47.47
2018-03-26T19:07:07.478Z,51.90
2018-03-26T19:09:35.715Z,49.50
2018-03-26T19:12:03.282Z,48.03
2018-03-26T19:14:31.597Z,45.97
2018-03-26T19:16:59.122Z,46.40
2018-03-26T19:19:26.702Z,46.13
2018-03-26T19:21:54.226Z,51.30
2018-03-26T19:24:21.769Z,50.27
2018-03-26T19:26:49.303Z,47.17
2018-03-26T19:29:17.076Z,48.73
2018-03-26T19:31:45.952Z,46.37
2018-03-26T19:34:13.472Z,45.90
2018-03-26T19:36:42.262Z,49.70
2018-03-26T19:39:09.822Z,49.93
2018-03-26T19:41:38.441Z,46.77
2018-03-26T19:44:06.919Z,49.30
2018-03-26T19:46:34.647Z,54.50
2018-03-26T19:49:02.429Z,49.10
2018-03-26T19:51:30.218Z,52.67
2018-03-26T19:53:57.804Z,45.27
2018-03-26T19:56:25.564Z,47.93
2018-03-26T19:58:53.263Z,53.50
2018-03-26T20:01:22.807Z,49.90
2018-03-26T20:03:50.423Z,52.43
2018-03-26T20:06:18.001Z,55.10
2018-03-26T20:08:46.063Z,47.80
2018-03-26T20:11:14.365Z,55.70
2018-03-26T20:13:41.902Z,51.10
2018-03-26T20:16:11.164Z,46.87
2018-03-26T20:18:39.055Z,52.30
2018-03-26T20:21:06.647Z,49.13
2018-03-26T20:23:34.280Z,51.70
2018-03-26T20:26:02.443Z,61.30
2018-03-26T20:28:30.678Z,53.53
2018-03-26T20:30:58.403Z,50.10
2018-03-26T20:33:27.612Z,49.97
2018-03-26T20:35:55.352Z,58.70
2018-03-26T20:38:23.658Z,55.77
2018-03-26T20:40:52.012Z,54.77
2018-03-26T20:43:20.584Z,61.10
2018-03-26T20:45:48.103Z,55.00
2018-03-26T20:48:17.257Z,55.30
2018-03-26T20:50:47.394Z,56.97
2018-03-26T20:53:15.715Z,58.43
2018-03-26T20:55:43.422Z,58.07
2018-03-26T20:58:11.959Z,59.03
2018-03-26T21:00:39.872Z,56.83
2018-03-26T21:03:07.411Z,63.10
2018-03-26T21:05:36.040Z,68.27
2018-03-26T21:08:03.720Z,60.30
2018-03-26T21:10:32.564Z,56.53
2018-03-26T21:13:00.104Z,61.03
2018-03-26T21:15:27.629Z,65.23
2018-03-26T21:17:55.957Z,59.87
2018-03-26T21:20:23.857Z,63.03
2018-03-26T21:22:51.631Z,69.43
2018-03-26T21:25:20.129Z,68.57
2018-03-26T21:27:48.462Z,73.90
2018-03-26T21:30:16.173Z,70.97
2018-03-26T21:32:44.735Z,75.37
2018-03-26T21:35:12.289Z,74.63
2018-03-26T21:37:40.052Z,70.80
2018-03-26T21:40:07.624Z,71.40
2018-03-26T21:42:36.164Z,66.30
2018-03-26T21:45:04.016Z,72.60
2018-03-26T21:47:31.516Z,79.30
2018-03-26T21:49:59.054Z,67.73
2018-03-26T21:52:28.647Z,78.37
2018-03-26T21:54:56.207Z,82.30
2018-03-26T21:57:24.236Z,70.20
2018-03-26T21:59:51.903Z,63.87
2018-03-26T22:02:19.666Z,69.33
2018-03-26T22:04:47.830Z,67.27
2018-03-26T22:07:15.353Z,69.17
2018-03-26T22:09:44.172Z,71.87
2018-03-26T22:12:11.692Z,66.27
2018-03-26T22:14:39.174Z,75.27
2018-03-26T22:17:06.708Z,69.50
2018-03-26T22:19:34.404Z,74.87
2018-03-26T22:22:03.295Z,68.73
2018-03-26T22:24:31.631Z,71.60
2018-03-26T22:26:59.258Z,75.83
2018-03-26T22:29:26.865Z,72.70
2018-03-26T22:31:55.862Z,73.47
2018-03-26T22:34:23.370Z,71.27
2018-03-26T22:36:50.870Z,69.67
2018-03-26T22:39:18.847Z,73.40
2018-03-26T22:41:46.571Z,76.00
2018-03-26T22:44:15.988Z,74.10
2018-03-26T22:46:43.821Z,75.60
2018-03-26T22:49:11.377Z,73.13
2018-03-26T22:51:38.921Z,74.17
2018-03-26T22:54:06.463Z,72.70
2018-03-26T22:56:35.317Z,74.97
2018-03-26T22:59:02.844Z,84.23
2018-03-26T23:01:30.491Z,85.10
2018-03-26T23:03:59.537Z,80.87
2018-03-26T23:06:29.418Z,76.73
2018-03-26T23:08:57.003Z,88.07
2018-03-26T23:11:25.019Z,83.00
2018-03-26T23:13:53.345Z,80.47
2018-03-26T23:16:20.953Z,82.57
2018-03-26T23:18:48.519Z,81.00
2018-03-26T23:21:16.852Z,88.03
2018-03-26T23:23:44.364Z,88.80
2018-03-26T23:26:13.431Z,99.97
2018-03-26T23:28:41.003Z,96.07
2018-03-26T23:31:08.574Z,92.20
2018-03-26T23:33:37.492Z,87.30
2018-03-26T23:36:05.889Z,85.10
2018-03-26T23:38:33.418Z,100.83
2018-03-26T23:41:02.050Z,86.23
2018-03-26T23:43:29.756Z,85.30
2018-03-26T23:45:58.039Z,96.10
2018-03-26T23:48:26.955Z,83.80
2018-03-26T23:50:54.997Z,90.87
2018-03-26T23:53:23.288Z,93.60
2018-03-26T23:55:50.830Z,90.07
2018-03-26T23:58:18.355Z,86.53
